Aérodrome :
LOGIN :

S'inscrire | Disclaimer

   EN    FR    IT 

 










Légende :    VFR   VFR Marginal   IFR   IFR Intensif   IFR Très Intensif
Visi : 
Plafond : 
>= 8 km
>= 3000ft
5 à 8 km
1000 à 3000 ft
1500m à 5 km
500 à 1000 ft
800 à 1500m
200 à 500 ft
< 800m
< 200 ft
Symboles :   Orages  Brouillard  Fortes neiges  Fortes précipitations  Vent > 20 kt
SIGMETs :   Divers  Orages  Givrage  Turbulence  Onde Orograph.  Cendres Volcan.







- Altitude de l'aérodrome : 485 ft
- Code IATA : QSA


LELL - Sabadell

DERNIER METAR :
  • 201130Z 11011KT 070V160 9999 VCTS VCSH FEW030CB SCT040 25/13 Q1014

METARs EXPIRÉS :
  • 201100Z 12004KT 9999 FEW040TCU 25/11 Q1014
  • 201030Z 12004KT 030V190 9999 FEW040 24/12 Q1015
  • 201000Z 13003KT 9999 FEW040 24/13 Q1015
  • 200930Z 11002KT 9999 FEW040 23/14 Q1015
  • 200900Z 12001KT 9999 FEW040 22/14 Q1015

TAF TAF LELL
Valide du 20 à 09h jusqu'au 21 à 09h UTC


200800Z 2009/2109 VRB03KT 9999 SCT040 TX24/2013Z TN12/2106Z
BECMG 2009/2011 12010KT
PROB40
TEMPO 2012/2018 4000 TSRA FEW020CB SCT030
BECMG 2018/2020 VRB03KT
Pas de NOTAMs connus pour ce terrain.
1 SIGMET publié pour la FIR Barcelona (LECB) :
 
Orages noyés dans la masse
LECB SIGMET 1 VALID 201030/201300 LEVA
LECB BARCELONA FIR/UIR EMBD TS OBS AT 1034Z WI N4220 E00230 - N4020 E00010 - N4040 W001 - N43 W00040 - N4220 E00230 TOP FL320 STNR NC=



MET'MAP, la Météo Aéronautique d'un coup d'oeil ! - Copyright ORBIFLY Décembre 2007 - Disclaimer

ORBIFLY MET'MAP TEAM :

Programmation & Développement : Alexandra Zaïnal
Conception & Développement : Baudouin d'Aumeries
Co-Programmation & Développement : Marc-Olivier Méhu
Soutien technique & logistique : Manuel Goepfert

Contact : metmap@orbifly.com




SOURCES & CREDITS :

   NOAA